Roaring Gap, NC

12:41 PM EDT on July 29, 2016 (GMT -0400)
Glade Valley View | | Change Station

Elev 2936 ft 36.50 °N, 81.05 °W | Updated 23 seconds ago

Scattered Clouds
Scattered Clouds
75.4 °F
Feels Like 77 °F
N
7.2
Wind Variable Wind from NNE
Gusts 9.8 mph

Today
High -- | Low -- °F
--% Chance of Precip.
Yesterday
High -- | Low -- °F
Precip. -- in
Pressure 30.04 in
Visibility 10.0 miles
Clouds Scattered Clouds 5000 ft
Heat Index 77 °F
Dew Point 64 °F
Humidity 68%
Rainfall 0.01 in
Snow Depth Not available.
6:28 AM 8:31 PM
Waning Crescent, 21% visible
METAR KUKF 291615Z AUTO 27007KT 10SM SCT050 30/18 A3004 RMK AO2 LTG DSNT N
Pressure 30.04 in
Visibility 10.0 miles
Clouds Scattered Clouds 5000 ft
Heat Index 77 °F
Dew Point 64 °F
Humidity 68%
Rainfall 0.01 in
Snow Depth Not available.
6:28 AM 8:31 PM
Waning Crescent, 21% visible
METAR KUKF 291615Z AUTO 27007KT 10SM SCT050 30/18 A3004 RMK AO2 LTG DSNT N

10-Day Weather Forecast

Almanac

Astronomy

Jul. 29, 2016 Rise Set
Actual Time
Civil Twilight
Nautical Twilight
Astronomical Twilight
Moon
Length of Visible Light
Length of Day
Tomorrow will be .
, % of the Moon is Illuminated

Today's Extremes

State Highs State Lows

Community

WunderPhotos

Upload Photos

1,928,378 photos uploaded!

WunderBlog® & News

Nearby

Air Quality

  Air Quality AQ Index Pollutant
Not available.

Snow Depth

Station Depth Elevation

Earthquake Activity

City Distance Mag. Time & Date
Minimum magnitude displayed is 2.5.

Coastal Water Temperatures

Place Temperature

Stations

Nearby Weather Stations

Station Location Temp. Windchill Dew Point Humidity Wind Precip. Elev Updated Type
                   

Watches & Warnings

There are currently no watches in effect.